Grosse Pointe Park, Michigan
Current Conditions -  °F | °C
As of 8:53 PM on Monday 20 Oct 2014 (Local Time) from KDET Reporting Station
Overcast Overcast  
Wind Chill: 57°   Ceiling: 3000
Heat Index: 57°   Visibility: 10mi
Dew Point: 48°   Wind: 7mph
Humidity: 72%   Direction: 280°W
Pressure: 29.84"   Gusts: NA
Location:  42.4104°N, 82.941°W
Report Text: KDET 210053Z 28006KT 10SM BKN030 OVC038 14/09 A2984 RMK AO2 SLP105 T01390089
Loading
Personal Weather Stations






























Interactive Weather Map
Tropical Storm Tracking
New forecast layout! Learn more

10-Day Weather Forecast

Advertisements
Track Severe Weather on mobile